sensor_id;sensor_type;location;lat;lon;timestamp;P1;durP1;ratioP1;P2;durP2;ratioP2
10339;SDS011;5215;48.676;9.022;2022-09-09T00:00:59;0.77;;;0.70;;
10339;SDS011;5215;48.676;9.022;2022-09-09T00:03:31;2.22;;;0.77;;
10339;SDS011;5215;48.676;9.022;2022-09-09T00:06:09;2.05;;;0.98;;
10339;SDS011;5215;48.676;9.022;2022-09-09T00:08:49;0.93;;;0.70;;
10339;SDS011;5215;48.676;9.022;2022-09-09T00:11:26;1.70;;;0.90;;
10339;SDS011;5215;48.676;9.022;2022-09-09T00:13:58;2.53;;;0.73;;
10339;SDS011;5215;48.676;9.022;2022-09-09T00:16:29;3.35;;;1.00;;
10339;SDS011;5215;48.676;9.022;2022-09-09T00:19:02;3.95;;;1.05;;
10339;SDS011;5215;48.676;9.022;2022-09-09T00:21:35;2.58;;;1.00;;
10339;SDS011;5215;48.676;9.022;2022-09-09T00:24:08;0.73;;;0.68;;
10339;SDS011;5215;48.676;9.022;2022-09-09T00:26:45;1.05;;;0.93;;
10339;SDS011;5215;48.676;9.022;2022-09-09T00:29:19;4.35;;;1.10;;
10339;SDS011;5215;48.676;9.022;2022-09-09T00:31:55;1.60;;;1.10;;
10339;SDS011;5215;48.676;9.022;2022-09-09T00:34:28;2.40;;;0.80;;
10339;SDS011;5215;48.676;9.022;2022-09-09T00:36:57;2.85;;;0.82;;
10339;SDS011;5215;48.676;9.022;2022-09-09T00:39:25;1.42;;;0.80;;
10339;SDS011;5215;48.676;9.022;2022-09-09T00:42:00;5.47;;;0.93;;
10339;SDS011;5215;48.676;9.022;2022-09-09T00:44:46;2.50;;;0.73;;
10339;SDS011;5215;48.676;9.022;2022-09-09T00:50:20;3.80;;;1.00;;
10339;SDS011;5215;48.676;9.022;2022-09-09T00:53:02;1.15;;;0.93;;
10339;SDS011;5215;48.676;9.022;2022-09-09T00:55:44;3.63;;;0.73;;
10339;SDS011;5215;48.676;9.022;2022-09-09T00:58:14;2.50;;;0.98;;
10339;SDS011;5215;48.676;9.022;2022-09-09T01:00:42;0.95;;;0.80;;
10339;SDS011;5215;48.676;9.022;2022-09-09T01:03:14;1.77;;;0.70;;
10339;SDS011;5215;48.676;9.022;2022-09-09T01:05:50;3.25;;;0.90;;
10339;SDS011;5215;48.676;9.022;2022-09-09T01:08:39;1.70;;;0.80;;
10339;SDS011;5215;48.676;9.022;2022-09-09T01:11:16;0.70;;;0.70;;
10339;SDS011;5215;48.676;9.022;2022-09-09T01:13:48;2.55;;;0.90;;
10339;SDS011;5215;48.676;9.022;2022-09-09T01:16:18;2.40;;;0.80;;
10339;SDS011;5215;48.676;9.022;2022-09-09T01:18:46;2.15;;;0.80;;
10339;SDS011;5215;48.676;9.022;2022-09-09T01:21:17;2.85;;;1.13;;
10339;SDS011;5215;48.676;9.022;2022-09-09T01:24:00;4.32;;;0.82;;
10339;SDS011;5215;48.676;9.022;2022-09-09T01:26:40;0.90;;;0.85;;
10339;SDS011;5215;48.676;9.022;2022-09-09T01:29:07;3.22;;;0.90;;
10339;SDS011;5215;48.676;9.022;2022-09-09T01:31:37;1.10;;;0.82;;
10339;SDS011;5215;48.676;9.022;2022-09-09T01:34:08;1.75;;;0.80;;
10339;SDS011;5215;48.676;9.022;2022-09-09T01:36:38;1.23;;;0.73;;
10339;SDS011;5215;48.676;9.022;2022-09-09T01:39:09;0.75;;;0.73;;
10339;SDS011;5215;48.676;9.022;2022-09-09T01:41:36;2.22;;;0.82;;
10339;SDS011;5215;48.676;9.022;2022-09-09T01:44:04;1.00;;;0.77;;
10339;SDS011;5215;48.676;9.022;2022-09-09T01:46:31;1.25;;;1.00;;
10339;SDS011;5215;48.676;9.022;2022-09-09T01:48:58;1.95;;;0.73;;
10339;SDS011;5215;48.676;9.022;2022-09-09T01:51:26;1.85;;;1.02;;
10339;SDS011;5215;48.676;9.022;2022-09-09T01:53:53;0.80;;;0.80;;
10339;SDS011;5215;48.676;9.022;2022-09-09T01:56:26;0.95;;;0.73;;
10339;SDS011;5215;48.676;9.022;2022-09-09T01:59:13;1.40;;;1.00;;
10339;SDS011;5215;48.676;9.022;2022-09-09T02:01:52;1.30;;;0.90;;
10339;SDS011;5215;48.676;9.022;2022-09-09T02:04:32;1.85;;;0.80;;
10339;SDS011;5215;48.676;9.022;2022-09-09T02:07:06;2.30;;;1.05;;
10339;SDS011;5215;48.676;9.022;2022-09-09T02:09:40;2.97;;;0.82;;
10339;SDS011;5215;48.676;9.022;2022-09-09T02:12:12;1.63;;;0.82;;
10339;SDS011;5215;48.676;9.022;2022-09-09T02:14:46;1.60;;;1.17;;
10339;SDS011;5215;48.676;9.022;2022-09-09T02:17:17;0.75;;;0.75;;
10339;SDS011;5215;48.676;9.022;2022-09-09T02:19:51;2.25;;;1.27;;
10339;SDS011;5215;48.676;9.022;2022-09-09T02:22:22;1.27;;;0.80;;
10339;SDS011;5215;48.676;9.022;2022-09-09T02:24:52;2.47;;;0.88;;
10339;SDS011;5215;48.676;9.022;2022-09-09T02:27:24;2.65;;;1.27;;
10339;SDS011;5215;48.676;9.022;2022-09-09T02:29:52;3.35;;;0.82;;
10339;SDS011;5215;48.676;9.022;2022-09-09T02:32:23;1.77;;;1.00;;
10339;SDS011;5215;48.676;9.022;2022-09-09T02:34:51;2.15;;;1.15;;
10339;SDS011;5215;48.676;9.022;2022-09-09T02:37:23;2.60;;;0.90;;
10339;SDS011;5215;48.676;9.022;2022-09-09T02:39:54;1.00;;;0.80;;
10339;SDS011;5215;48.676;9.022;2022-09-09T02:42:21;2.85;;;0.93;;
10339;SDS011;5215;48.676;9.022;2022-09-09T02:44:48;1.60;;;0.85;;
10339;SDS011;5215;48.676;9.022;2022-09-09T02:47:25;2.47;;;0.95;;
10339;SDS011;5215;48.676;9.022;2022-09-09T02:50:04;3.15;;;0.85;;
10339;SDS011;5215;48.676;9.022;2022-09-09T02:52:41;1.58;;;0.65;;
10339;SDS011;5215;48.676;9.022;2022-09-09T02:55:16;1.50;;;0.60;;
10339;SDS011;5215;48.676;9.022;2022-09-09T02:57:48;0.75;;;0.68;;
10339;SDS011;5215;48.676;9.022;2022-09-09T03:00:22;0.93;;;0.80;;
10339;SDS011;5215;48.676;9.022;2022-09-09T03:02:51;0.85;;;0.75;;
10339;SDS011;5215;48.676;9.022;2022-09-09T03:05:19;2.92;;;0.85;;
10339;SDS011;5215;48.676;9.022;2022-09-09T03:07:46;0.98;;;0.75;;
10339;SDS011;5215;48.676;9.022;2022-09-09T03:10:14;2.20;;;0.70;;
10339;SDS011;5215;48.676;9.022;2022-09-09T03:12:41;2.55;;;0.90;;
10339;SDS011;5215;48.676;9.022;2022-09-09T03:15:08;2.25;;;0.80;;
10339;SDS011;5215;48.676;9.022;2022-09-09T03:17:35;2.03;;;0.80;;
10339;SDS011;5215;48.676;9.022;2022-09-09T03:20:04;0.50;;;0.50;;
10339;SDS011;5215;48.676;9.022;2022-09-09T03:22:32;1.40;;;0.60;;
10339;SDS011;5215;48.676;9.022;2022-09-09T03:24:59;0.95;;;0.80;;
10339;SDS011;5215;48.676;9.022;2022-09-09T03:27:25;1.15;;;0.70;;
10339;SDS011;5215;48.676;9.022;2022-09-09T03:29:52;1.38;;;0.70;;
10339;SDS011;5215;48.676;9.022;2022-09-09T03:32:18;0.80;;;0.60;;
10339;SDS011;5215;48.676;9.022;2022-09-09T03:34:47;1.67;;;0.80;;
10339;SDS011;5215;48.676;9.022;2022-09-09T03:37:16;1.40;;;0.88;;
10339;SDS011;5215;48.676;9.022;2022-09-09T03:39:43;1.15;;;0.90;;
10339;SDS011;5215;48.676;9.022;2022-09-09T03:42:11;1.30;;;0.73;;
10339;SDS011;5215;48.676;9.022;2022-09-09T03:44:43;0.95;;;0.60;;
10339;SDS011;5215;48.676;9.022;2022-09-09T03:47:11;0.82;;;0.50;;
10339;SDS011;5215;48.676;9.022;2022-09-09T03:49:38;4.68;;;0.80;;
10339;SDS011;5215;48.676;9.022;2022-09-09T03:52:04;1.02;;;0.70;;
10339;SDS011;5215;48.676;9.022;2022-09-09T03:54:32;1.95;;;0.77;;
10339;SDS011;5215;48.676;9.022;2022-09-09T03:56:59;1.00;;;0.90;;
10339;SDS011;5215;48.676;9.022;2022-09-09T03:59:25;2.42;;;1.00;;
10339;SDS011;5215;48.676;9.022;2022-09-09T04:01:52;3.25;;;0.80;;
10339;SDS011;5215;48.676;9.022;2022-09-09T04:04:19;1.02;;;0.70;;
10339;SDS011;5215;48.676;9.022;2022-09-09T04:06:46;2.25;;;1.00;;
10339;SDS011;5215;48.676;9.022;2022-09-09T04:09:13;1.50;;;0.80;;
10339;SDS011;5215;48.676;9.022;2022-09-09T04:11:41;1.27;;;0.70;;
10339;SDS011;5215;48.676;9.022;2022-09-09T04:14:07;1.15;;;1.00;;
10339;SDS011;5215;48.676;9.022;2022-09-09T04:16:34;0.85;;;0.85;;
10339;SDS011;5215;48.676;9.022;2022-09-09T04:19:02;1.25;;;0.85;;
10339;SDS011;5215;48.676;9.022;2022-09-09T04:21:29;0.80;;;0.80;;
10339;SDS011;5215;48.676;9.022;2022-09-09T04:23:56;2.95;;;0.98;;
10339;SDS011;5215;48.676;9.022;2022-09-09T04:26:23;1.00;;;0.90;;
10339;SDS011;5215;48.676;9.022;2022-09-09T04:28:50;1.00;;;0.90;;
10339;SDS011;5215;48.676;9.022;2022-09-09T04:31:18;2.30;;;1.10;;
10339;SDS011;5215;48.676;9.022;2022-09-09T04:33:47;0.98;;;0.90;;
10339;SDS011;5215;48.676;9.022;2022-09-09T04:36:14;1.27;;;0.90;;
10339;SDS011;5215;48.676;9.022;2022-09-09T04:38:41;1.15;;;0.90;;
10339;SDS011;5215;48.676;9.022;2022-09-09T04:41:09;1.63;;;1.20;;
10339;SDS011;5215;48.676;9.022;2022-09-09T04:43:37;1.58;;;0.80;;
10339;SDS011;5215;48.676;9.022;2022-09-09T04:46:05;3.78;;;1.10;;
10339;SDS011;5215;48.676;9.022;2022-09-09T04:48:32;2.70;;;1.20;;
10339;SDS011;5215;48.676;9.022;2022-09-09T04:50:59;3.08;;;1.02;;
10339;SDS011;5215;48.676;9.022;2022-09-09T04:53:27;3.20;;;0.90;;
10339;SDS011;5215;48.676;9.022;2022-09-09T04:56:00;2.15;;;1.13;;
10339;SDS011;5215;48.676;9.022;2022-09-09T04:58:28;1.70;;;0.80;;
10339;SDS011;5215;48.676;9.022;2022-09-09T05:00:54;1.17;;;0.90;;
10339;SDS011;5215;48.676;9.022;2022-09-09T05:03:22;1.65;;;0.90;;
10339;SDS011;5215;48.676;9.022;2022-09-09T05:05:49;1.30;;;0.73;;
10339;SDS011;5215;48.676;9.022;2022-09-09T05:08:15;2.42;;;1.10;;
10339;SDS011;5215;48.676;9.022;2022-09-09T05:10:43;1.73;;;1.13;;
10339;SDS011;5215;48.676;9.022;2022-09-09T05:13:09;0.85;;;0.85;;
10339;SDS011;5215;48.676;9.022;2022-09-09T05:15:36;2.67;;;1.00;;
10339;SDS011;5215;48.676;9.022;2022-09-09T05:18:02;3.05;;;1.10;;
10339;SDS011;5215;48.676;9.022;2022-09-09T05:20:30;4.45;;;0.88;;
10339;SDS011;5215;48.676;9.022;2022-09-09T05:22:57;3.40;;;0.90;;
10339;SDS011;5215;48.676;9.022;2022-09-09T05:25:24;1.35;;;0.98;;
10339;SDS011;5215;48.676;9.022;2022-09-09T05:27:51;2.92;;;1.00;;
10339;SDS011;5215;48.676;9.022;2022-09-09T05:30:18;1.05;;;0.95;;
10339;SDS011;5215;48.676;9.022;2022-09-09T05:32:45;1.10;;;1.00;;
10339;SDS011;5215;48.676;9.022;2022-09-09T05:35:12;2.35;;;0.90;;
10339;SDS011;5215;48.676;9.022;2022-09-09T05:37:40;2.10;;;0.82;;
10339;SDS011;5215;48.676;9.022;2022-09-09T05:40:07;2.33;;;1.00;;
10339;SDS011;5215;48.676;9.022;2022-09-09T05:42:36;2.10;;;1.10;;
10339;SDS011;5215;48.676;9.022;2022-09-09T05:45:02;1.63;;;1.10;;
10339;SDS011;5215;48.676;9.022;2022-09-09T05:47:29;1.35;;;0.98;;
10339;SDS011;5215;48.676;9.022;2022-09-09T05:49:56;2.33;;;1.10;;
10339;SDS011;5215;48.676;9.022;2022-09-09T05:52:24;3.80;;;0.90;;
10339;SDS011;5215;48.676;9.022;2022-09-09T05:54:53;3.30;;;1.00;;
10339;SDS011;5215;48.676;9.022;2022-09-09T05:57:21;1.20;;;1.02;;
10339;SDS011;5215;48.676;9.022;2022-09-09T05:59:48;7.93;;;4.75;;
10339;SDS011;5215;48.676;9.022;2022-09-09T06:02:15;9.82;;;6.07;;
10339;SDS011;5215;48.676;9.022;2022-09-09T06:04:41;6.45;;;4.22;;
10339;SDS011;5215;48.676;9.022;2022-09-09T06:07:08;2.10;;;0.90;;
10339;SDS011;5215;48.676;9.022;2022-09-09T06:09:34;1.65;;;1.20;;
10339;SDS011;5215;48.676;9.022;2022-09-09T06:12:02;1.48;;;1.00;;
10339;SDS011;5215;48.676;9.022;2022-09-09T06:14:29;1.05;;;0.95;;
10339;SDS011;5215;48.676;9.022;2022-09-09T06:16:56;2.83;;;1.42;;
10339;SDS011;5215;48.676;9.022;2022-09-09T06:19:22;2.28;;;0.95;;
10339;SDS011;5215;48.676;9.022;2022-09-09T06:21:51;1.50;;;1.20;;
10339;SDS011;5215;48.676;9.022;2022-09-09T06:24:18;1.98;;;1.00;;
10339;SDS011;5215;48.676;9.022;2022-09-09T06:26:45;2.35;;;1.10;;
10339;SDS011;5215;48.676;9.022;2022-09-09T06:29:13;0.80;;;0.80;;
10339;SDS011;5215;48.676;9.022;2022-09-09T06:31:40;1.02;;;0.93;;
10339;SDS011;5215;48.676;9.022;2022-09-09T06:34:07;1.42;;;1.00;;
10339;SDS011;5215;48.676;9.022;2022-09-09T06:36:35;2.88;;;1.00;;
10339;SDS011;5215;48.676;9.022;2022-09-09T06:39:03;2.33;;;0.90;;
10339;SDS011;5215;48.676;9.022;2022-09-09T06:41:31;1.10;;;1.00;;
10339;SDS011;5215;48.676;9.022;2022-09-09T06:43:59;2.30;;;1.25;;
10339;SDS011;5215;48.676;9.022;2022-09-09T06:46:27;1.88;;;0.98;;
10339;SDS011;5215;48.676;9.022;2022-09-09T06:48:56;1.88;;;1.00;;
10339;SDS011;5215;48.676;9.022;2022-09-09T06:51:25;2.38;;;1.08;;
10339;SDS011;5215;48.676;9.022;2022-09-09T06:53:52;2.65;;;0.93;;
10339;SDS011;5215;48.676;9.022;2022-09-09T06:56:21;1.77;;;0.90;;
10339;SDS011;5215;48.676;9.022;2022-09-09T06:58:49;1.85;;;0.80;;
10339;SDS011;5215;48.676;9.022;2022-09-09T07:01:17;3.40;;;1.13;;
10339;SDS011;5215;48.676;9.022;2022-09-09T07:03:47;0.77;;;0.77;;
10339;SDS011;5215;48.676;9.022;2022-09-09T07:06:15;4.05;;;1.00;;
10339;SDS011;5215;48.676;9.022;2022-09-09T07:08:43;1.52;;;1.00;;
10339;SDS011;5215;48.676;9.022;2022-09-09T07:11:10;2.08;;;1.05;;
10339;SDS011;5215;48.676;9.022;2022-09-09T07:13:37;2.80;;;1.33;;
10339;SDS011;5215;48.676;9.022;2022-09-09T07:16:04;1.42;;;1.25;;
10339;SDS011;5215;48.676;9.022;2022-09-09T07:18:31;2.15;;;1.00;;
10339;SDS011;5215;48.676;9.022;2022-09-09T07:21:01;3.65;;;1.00;;
10339;SDS011;5215;48.676;9.022;2022-09-09T07:23:29;3.50;;;0.85;;
10339;SDS011;5215;48.676;9.022;2022-09-09T07:25:57;1.42;;;1.00;;
10339;SDS011;5215;48.676;9.022;2022-09-09T07:28:24;2.45;;;1.00;;
10339;SDS011;5215;48.676;9.022;2022-09-09T07:30:53;2.35;;;1.00;;
10339;SDS011;5215;48.676;9.022;2022-09-09T07:33:20;1.80;;;0.80;;
10339;SDS011;5215;48.676;9.022;2022-09-09T07:35:47;2.45;;;1.13;;
10339;SDS011;5215;48.676;9.022;2022-09-09T07:38:15;3.50;;;1.00;;
10339;SDS011;5215;48.676;9.022;2022-09-09T07:40:42;0.93;;;0.90;;
10339;SDS011;5215;48.676;9.022;2022-09-09T07:43:08;2.83;;;1.00;;
10339;SDS011;5215;48.676;9.022;2022-09-09T07:45:37;3.50;;;1.00;;
10339;SDS011;5215;48.676;9.022;2022-09-09T07:48:09;1.45;;;1.08;;
10339;SDS011;5215;48.676;9.022;2022-09-09T07:50:39;1.33;;;0.85;;
10339;SDS011;5215;48.676;9.022;2022-09-09T07:53:05;2.22;;;0.90;;
10339;SDS011;5215;48.676;9.022;2022-09-09T07:55:33;3.17;;;0.85;;
10339;SDS011;5215;48.676;9.022;2022-09-09T07:58:00;2.15;;;0.88;;
10339;SDS011;5215;48.676;9.022;2022-09-09T08:00:26;1.40;;;0.88;;
10339;SDS011;5215;48.676;9.022;2022-09-09T08:02:54;1.17;;;1.00;;
10339;SDS011;5215;48.676;9.022;2022-09-09T08:05:21;3.97;;;1.05;;
10339;SDS011;5215;48.676;9.022;2022-09-09T08:07:48;1.48;;;0.80;;
10339;SDS011;5215;48.676;9.022;2022-09-09T08:10:15;1.15;;;0.98;;
10339;SDS011;5215;48.676;9.022;2022-09-09T08:12:44;1.33;;;0.80;;
10339;SDS011;5215;48.676;9.022;2022-09-09T08:15:11;3.50;;;0.90;;
10339;SDS011;5215;48.676;9.022;2022-09-09T08:17:37;4.28;;;0.90;;
10339;SDS011;5215;48.676;9.022;2022-09-09T08:20:04;2.35;;;1.20;;
10339;SDS011;5215;48.676;9.022;2022-09-09T08:22:31;2.38;;;1.10;;
10339;SDS011;5215;48.676;9.022;2022-09-09T08:24:59;3.38;;;0.80;;
10339;SDS011;5215;48.676;9.022;2022-09-09T08:27:26;2.60;;;1.02;;
10339;SDS011;5215;48.676;9.022;2022-09-09T08:29:54;2.58;;;0.82;;
10339;SDS011;5215;48.676;9.022;2022-09-09T08:32:21;4.93;;;1.00;;
10339;SDS011;5215;48.676;9.022;2022-09-09T08:34:47;3.17;;;2.47;;
10339;SDS011;5215;48.676;9.022;2022-09-09T08:37:14;2.90;;;1.13;;
10339;SDS011;5215;48.676;9.022;2022-09-09T08:39:41;3.45;;;0.90;;
10339;SDS011;5215;48.676;9.022;2022-09-09T08:42:25;1.90;;;1.13;;
10339;SDS011;5215;48.676;9.022;2022-09-09T08:45:05;2.40;;;1.00;;
10339;SDS011;5215;48.676;9.022;2022-09-09T08:47:48;1.02;;;0.80;;
10339;SDS011;5215;48.676;9.022;2022-09-09T08:50:26;3.33;;;0.90;;
10339;SDS011;5215;48.676;9.022;2022-09-09T08:52:57;4.50;;;1.17;;
10339;SDS011;5215;48.676;9.022;2022-09-09T08:55:31;1.58;;;0.98;;
10339;SDS011;5215;48.676;9.022;2022-09-09T08:58:05;1.33;;;0.85;;
10339;SDS011;5215;48.676;9.022;2022-09-09T09:00:41;1.48;;;0.93;;
10339;SDS011;5215;48.676;9.022;2022-09-09T09:03:22;3.03;;;1.10;;
10339;SDS011;5215;48.676;9.022;2022-09-09T09:05:59;2.58;;;0.80;;
10339;SDS011;5215;48.676;9.022;2022-09-09T09:08:33;1.83;;;0.88;;
10339;SDS011;5215;48.676;9.022;2022-09-09T09:11:07;1.40;;;0.90;;
10339;SDS011;5215;48.676;9.022;2022-09-09T09:13:34;1.25;;;1.02;;
10339;SDS011;5215;48.676;9.022;2022-09-09T09:16:12;2.33;;;0.50;;
10339;SDS011;5215;48.676;9.022;2022-09-09T09:18:45;2.85;;;1.00;;
10339;SDS011;5215;48.676;9.022;2022-09-09T09:21:12;2.13;;;0.50;;
10339;SDS011;5215;48.676;9.022;2022-09-09T09:23:45;2.45;;;0.80;;
10339;SDS011;5215;48.676;9.022;2022-09-09T09:26:16;1.92;;;0.77;;
10339;SDS011;5215;48.676;9.022;2022-09-09T09:28:43;2.13;;;0.80;;
10339;SDS011;5215;48.676;9.022;2022-09-09T09:31:13;0.73;;;0.73;;
10339;SDS011;5215;48.676;9.022;2022-09-09T09:33:43;1.20;;;0.73;;
10339;SDS011;5215;48.676;9.022;2022-09-09T09:36:14;1.27;;;0.80;;
10339;SDS011;5215;48.676;9.022;2022-09-09T09:38:51;3.05;;;1.00;;
10339;SDS011;5215;48.676;9.022;2022-09-09T09:41:30;3.17;;;1.20;;
10339;SDS011;5215;48.676;9.022;2022-09-09T09:43:59;3.92;;;1.15;;
10339;SDS011;5215;48.676;9.022;2022-09-09T09:46:28;2.20;;;0.82;;
10339;SDS011;5215;48.676;9.022;2022-09-09T09:48:58;0.80;;;0.60;;
10339;SDS011;5215;48.676;9.022;2022-09-09T09:51:26;1.17;;;0.80;;
10339;SDS011;5215;48.676;9.022;2022-09-09T09:54:01;6.35;;;2.13;;
10339;SDS011;5215;48.676;9.022;2022-09-09T09:56:34;2.30;;;0.98;;
10339;SDS011;5215;48.676;9.022;2022-09-09T09:59:02;2.80;;;1.00;;
10339;SDS011;5215;48.676;9.022;2022-09-09T10:01:31;3.33;;;1.17;;
10339;SDS011;5215;48.676;9.022;2022-09-09T10:03:59;2.28;;;1.13;;
10339;SDS011;5215;48.676;9.022;2022-09-09T10:06:31;2.38;;;0.90;;
10339;SDS011;5215;48.676;9.022;2022-09-09T10:08:59;2.85;;;1.30;;
10339;SDS011;5215;48.676;9.022;2022-09-09T10:11:29;1.85;;;1.13;;
10339;SDS011;5215;48.676;9.022;2022-09-09T10:14:05;1.30;;;0.80;;
10339;SDS011;5215;48.676;9.022;2022-09-09T10:16:47;2.83;;;1.10;;
10339;SDS011;5215;48.676;9.022;2022-09-09T10:19:32;1.20;;;0.93;;
10339;SDS011;5215;48.676;9.022;2022-09-09T10:22:02;3.63;;;1.05;;
10339;SDS011;5215;48.676;9.022;2022-09-09T10:27:38;2.85;;;0.85;;
10339;SDS011;5215;48.676;9.022;2022-09-09T10:30:14;1.35;;;1.05;;
10339;SDS011;5215;48.676;9.022;2022-09-09T10:32:49;4.18;;;1.02;;
10339;SDS011;5215;48.676;9.022;2022-09-09T10:35:30;1.98;;;0.85;;
10339;SDS011;5215;48.676;9.022;2022-09-09T10:38:10;3.17;;;0.88;;
10339;SDS011;5215;48.676;9.022;2022-09-09T10:40:58;1.48;;;1.10;;
10339;SDS011;5215;48.676;9.022;2022-09-09T10:43:43;2.33;;;1.00;;
10339;SDS011;5215;48.676;9.022;2022-09-09T10:46:22;1.35;;;0.98;;
10339;SDS011;5215;48.676;9.022;2022-09-09T10:49:03;4.15;;;1.10;;
10339;SDS011;5215;48.676;9.022;2022-09-09T10:51:43;3.92;;;1.20;;
10339;SDS011;5215;48.676;9.022;2022-09-09T10:54:24;1.90;;;1.08;;
10339;SDS011;5215;48.676;9.022;2022-09-09T10:57:06;3.60;;;1.10;;
10339;SDS011;5215;48.676;9.022;2022-09-09T10:59:43;4.22;;;1.20;;
10339;SDS011;5215;48.676;9.022;2022-09-09T11:02:15;1.42;;;1.00;;
10339;SDS011;5215;48.676;9.022;2022-09-09T11:04:49;3.10;;;1.00;;
10339;SDS011;5215;48.676;9.022;2022-09-09T11:07:27;4.45;;;0.90;;
10339;SDS011;5215;48.676;9.022;2022-09-09T11:10:03;1.75;;;0.57;;
10339;SDS011;5215;48.676;9.022;2022-09-09T11:12:38;3.03;;;0.55;;
10339;SDS011;5215;48.676;9.022;2022-09-09T11:15:13;1.42;;;0.70;;
10339;SDS011;5215;48.676;9.022;2022-09-09T11:17:44;2.47;;;0.60;;
10339;SDS011;5215;48.676;9.022;2022-09-09T11:20:15;2.97;;;0.80;;
10339;SDS011;5215;48.676;9.022;2022-09-09T11:22:43;1.33;;;0.63;;
10339;SDS011;5215;48.676;9.022;2022-09-09T11:25:15;2.90;;;0.60;;
10339;SDS011;5215;48.676;9.022;2022-09-09T11:27:44;2.78;;;0.70;;
10339;SDS011;5215;48.676;9.022;2022-09-09T11:30:29;0.43;;;0.40;;
10339;SDS011;5215;48.676;9.022;2022-09-09T11:33:15;0.57;;;0.30;;
10339;SDS011;5215;48.676;9.022;2022-09-09T11:36:00;2.85;;;0.55;;
10339;SDS011;5215;48.676;9.022;2022-09-09T11:38:39;1.55;;;0.30;;
10339;SDS011;5215;48.676;9.022;2022-09-09T11:41:11;0.50;;;0.50;;
10339;SDS011;5215;48.676;9.022;2022-09-09T11:43:40;0.30;;;0.30;;
10339;SDS011;5215;48.676;9.022;2022-09-09T11:46:07;0.40;;;0.17;;
10339;SDS011;5215;48.676;9.022;2022-09-09T11:48:36;0.45;;;0.30;;
10339;SDS011;5215;48.676;9.022;2022-09-09T11:51:06;0.85;;;0.20;;
10339;SDS011;5215;48.676;9.022;2022-09-09T11:53:36;0.20;;;0.20;;
10339;SDS011;5215;48.676;9.022;2022-09-09T11:56:22;0.30;;;0.20;;
10339;SDS011;5215;48.676;9.022;2022-09-09T11:58:55;0.30;;;0.30;;
10339;SDS011;5215;48.676;9.022;2022-09-09T12:01:27;1.75;;;0.20;;
10339;SDS011;5215;48.676;9.022;2022-09-09T12:04:00;2.08;;;0.35;;
10339;SDS011;5215;48.676;9.022;2022-09-09T12:06:42;0.52;;;0.28;;
10339;SDS011;5215;48.676;9.022;2022-09-09T12:09:15;0.88;;;0.25;;
10339;SDS011;5215;48.676;9.022;2022-09-09T12:11:50;0.60;;;0.30;;
10339;SDS011;5215;48.676;9.022;2022-09-09T12:14:20;0.68;;;0.40;;
10339;SDS011;5215;48.676;9.022;2022-09-09T12:16:48;0.43;;;0.28;;
10339;SDS011;5215;48.676;9.022;2022-09-09T12:19:18;1.33;;;0.55;;
10339;SDS011;5215;48.676;9.022;2022-09-09T12:21:51;0.75;;;0.22;;
10339;SDS011;5215;48.676;9.022;2022-09-09T12:24:27;0.52;;;0.20;;
10339;SDS011;5215;48.676;9.022;2022-09-09T12:27:05;1.40;;;0.20;;
10339;SDS011;5215;48.676;9.022;2022-09-09T12:29:41;0.88;;;0.40;;
10339;SDS011;5215;48.676;9.022;2022-09-09T12:32:14;1.10;;;0.55;;
10339;SDS011;5215;48.676;9.022;2022-09-09T12:34:44;1.50;;;0.43;;
10339;SDS011;5215;48.676;9.022;2022-09-09T12:37:17;0.68;;;0.50;;
10339;SDS011;5215;48.676;9.022;2022-09-09T12:39:51;0.50;;;0.40;;
10339;SDS011;5215;48.676;9.022;2022-09-09T12:42:21;0.60;;;0.60;;
10339;SDS011;5215;48.676;9.022;2022-09-09T12:44:55;0.95;;;0.40;;
10339;SDS011;5215;48.676;9.022;2022-09-09T12:47:24;0.88;;;0.50;;
10339;SDS011;5215;48.676;9.022;2022-09-09T12:49:57;1.02;;;0.70;;
10339;SDS011;5215;48.676;9.022;2022-09-09T12:52:26;0.75;;;0.52;;
10339;SDS011;5215;48.676;9.022;2022-09-09T12:54:58;0.90;;;0.68;;
10339;SDS011;5215;48.676;9.022;2022-09-09T12:57:29;1.40;;;0.45;;
10339;SDS011;5215;48.676;9.022;2022-09-09T13:00:04;2.08;;;0.70;;
10339;SDS011;5215;48.676;9.022;2022-09-09T13:02:34;1.65;;;0.43;;
10339;SDS011;5215;48.676;9.022;2022-09-09T13:05:12;1.77;;;0.50;;
10339;SDS011;5215;48.676;9.022;2022-09-09T13:07:43;3.15;;;0.70;;
10339;SDS011;5215;48.676;9.022;2022-09-09T13:10:11;2.92;;;0.60;;
10339;SDS011;5215;48.676;9.022;2022-09-09T13:12:38;1.27;;;0.50;;
10339;SDS011;5215;48.676;9.022;2022-09-09T13:15:09;0.70;;;0.40;;
10339;SDS011;5215;48.676;9.022;2022-09-09T13:17:48;3.35;;;0.50;;
10339;SDS011;5215;48.676;9.022;2022-09-09T13:20:18;0.88;;;0.47;;
10339;SDS011;5215;48.676;9.022;2022-09-09T13:22:48;1.58;;;0.55;;
10339;SDS011;5215;48.676;9.022;2022-09-09T13:25:18;2.60;;;0.57;;
10339;SDS011;5215;48.676;9.022;2022-09-09T13:28:00;1.02;;;0.43;;
10339;SDS011;5215;48.676;9.022;2022-09-09T13:30:29;2.35;;;0.40;;
10339;SDS011;5215;48.676;9.022;2022-09-09T13:35:49;3.20;;;0.50;;
10339;SDS011;5215;48.676;9.022;2022-09-09T13:38:19;0.90;;;0.40;;
10339;SDS011;5215;48.676;9.022;2022-09-09T13:40:57;4.85;;;0.63;;
10339;SDS011;5215;48.676;9.022;2022-09-09T13:43:26;1.63;;;0.43;;
10339;SDS011;5215;48.676;9.022;2022-09-09T13:45:55;0.60;;;0.35;;
10339;SDS011;5215;48.676;9.022;2022-09-09T13:48:23;0.57;;;0.50;;
10339;SDS011;5215;48.676;9.022;2022-09-09T13:50:54;1.10;;;0.55;;
10339;SDS011;5215;48.676;9.022;2022-09-09T13:53:26;2.10;;;0.88;;
10339;SDS011;5215;48.676;9.022;2022-09-09T13:55:53;0.77;;;0.40;;
10339;SDS011;5215;48.676;9.022;2022-09-09T13:58:22;4.03;;;0.65;;
10339;SDS011;5215;48.676;9.022;2022-09-09T14:00:50;1.30;;;0.50;;
10339;SDS011;5215;48.676;9.022;2022-09-09T14:03:17;2.47;;;0.65;;
10339;SDS011;5215;48.676;9.022;2022-09-09T14:05:44;0.52;;;0.40;;
10339;SDS011;5215;48.676;9.022;2022-09-09T14:08:15;2.08;;;0.55;;
10339;SDS011;5215;48.676;9.022;2022-09-09T14:10:51;0.40;;;0.40;;
10339;SDS011;5215;48.676;9.022;2022-09-09T14:13:23;0.63;;;0.45;;
10339;SDS011;5215;48.676;9.022;2022-09-09T14:15:49;0.88;;;0.70;;
10339;SDS011;5215;48.676;9.022;2022-09-09T14:18:16;0.63;;;0.20;;
10339;SDS011;5215;48.676;9.022;2022-09-09T14:20:43;1.45;;;0.40;;
10339;SDS011;5215;48.676;9.022;2022-09-09T14:23:11;1.58;;;0.60;;
10339;SDS011;5215;48.676;9.022;2022-09-09T14:25:39;0.70;;;0.32;;
10339;SDS011;5215;48.676;9.022;2022-09-09T14:28:10;0.90;;;0.32;;
10339;SDS011;5215;48.676;9.022;2022-09-09T14:30:38;0.80;;;0.50;;
10339;SDS011;5215;48.676;9.022;2022-09-09T14:33:05;0.47;;;0.30;;
10339;SDS011;5215;48.676;9.022;2022-09-09T14:35:32;0.47;;;0.47;;
10339;SDS011;5215;48.676;9.022;2022-09-09T14:37:59;0.95;;;0.63;;
10339;SDS011;5215;48.676;9.022;2022-09-09T14:40:27;0.88;;;0.28;;
10339;SDS011;5215;48.676;9.022;2022-09-09T14:42:54;1.27;;;0.52;;
10339;SDS011;5215;48.676;9.022;2022-09-09T14:45:22;0.65;;;0.40;;
10339;SDS011;5215;48.676;9.022;2022-09-09T14:47:49;2.25;;;0.63;;
10339;SDS011;5215;48.676;9.022;2022-09-09T14:50:16;1.25;;;0.40;;
10339;SDS011;5215;48.676;9.022;2022-09-09T14:52:43;1.48;;;0.38;;
10339;SDS011;5215;48.676;9.022;2022-09-09T14:55:10;1.17;;;0.52;;
10339;SDS011;5215;48.676;9.022;2022-09-09T14:57:38;1.55;;;0.50;;
10339;SDS011;5215;48.676;9.022;2022-09-09T15:00:05;2.00;;;0.52;;
10339;SDS011;5215;48.676;9.022;2022-09-09T15:02:34;1.17;;;0.70;;
10339;SDS011;5215;48.676;9.022;2022-09-09T15:05:01;3.80;;;0.90;;
10339;SDS011;5215;48.676;9.022;2022-09-09T15:07:28;0.98;;;0.60;;
10339;SDS011;5215;48.676;9.022;2022-09-09T15:09:54;0.88;;;0.40;;
10339;SDS011;5215;48.676;9.022;2022-09-09T15:12:21;2.53;;;0.50;;
10339;SDS011;5215;48.676;9.022;2022-09-09T15:14:47;1.02;;;0.50;;
10339;SDS011;5215;48.676;9.022;2022-09-09T15:17:15;1.75;;;0.60;;
10339;SDS011;5215;48.676;9.022;2022-09-09T15:19:43;1.30;;;0.63;;
10339;SDS011;5215;48.676;9.022;2022-09-09T15:22:09;0.88;;;0.50;;
10339;SDS011;5215;48.676;9.022;2022-09-09T15:24:36;1.52;;;0.30;;
10339;SDS011;5215;48.676;9.022;2022-09-09T15:27:02;1.23;;;0.30;;
10339;SDS011;5215;48.676;9.022;2022-09-09T15:29:30;0.52;;;0.50;;